createdAt,value
2023-03-24T00:00:47.157Z,25.5
2023-03-24T00:06:24.582Z,22.6
2023-03-24T00:12:04.133Z,23.4
2023-03-24T00:17:24.951Z,23
2023-03-24T00:23:01.008Z,22.9
2023-03-24T00:28:36.782Z,22.5
2023-03-24T00:34:13.505Z,22.4
2023-03-24T00:40:04.950Z,22
2023-03-24T00:45:56.324Z,23.3
2023-03-24T00:51:17.998Z,25.5
2023-03-24T00:56:54.394Z,22.7
2023-03-24T01:02:30.580Z,23.4
2023-03-24T01:08:06.175Z,23.2
2023-03-24T01:13:57.702Z,23.1
2023-03-24T01:19:18.592Z,22.7
2023-03-24T01:25:10.077Z,22.5
2023-03-24T01:31:02.486Z,22.1
2023-03-24T01:36:54.247Z,23.1
2023-03-24T01:42:48.413Z,25.1
2023-03-24T01:48:41.878Z,22.8
2023-03-24T01:54:33.844Z,23.4
2023-03-24T02:00:24.825Z,23.2
2023-03-24T02:06:02.127Z,23.1
2023-03-24T02:11:38.494Z,22.7
2023-03-24T02:17:14.982Z,22.5
2023-03-24T02:22:51.438Z,22.1
2023-03-24T02:28:42.365Z,23
2023-03-24T02:34:33.909Z,25.1
2023-03-24T02:40:10.471Z,22.9
2023-03-24T02:45:46.887Z,23.1
2023-03-24T02:51:38.860Z,23.3
2023-03-24T02:57:30.467Z,23.1
2023-03-24T03:03:22.288Z,22.7
2023-03-24T03:09:15.080Z,22.6
2023-03-24T03:15:06.375Z,22.1
2023-03-24T03:20:42.850Z,23.1
2023-03-24T03:26:34.313Z,25.1
2023-03-24T03:31:23.788Z,22.9
2023-03-24T03:37:00.624Z,22.9
2023-03-24T03:42:20.685Z,23.3
2023-03-24T03:47:57.053Z,23
2023-03-24T03:53:28.094Z,22.8
2023-03-24T03:59:19.533Z,22.6
2023-03-24T04:04:40.933Z,22.3
2023-03-24T04:10:26.170Z,22.3
2023-03-24T04:16:18.628Z,24.3
2023-03-24T04:21:54.522Z,23.8
2023-03-24T04:27:45.352Z,22.9
2023-03-24T04:33:37.291Z,23.5
2023-03-24T04:39:29.423Z,23
2023-03-24T04:45:22.777Z,22.9
2023-03-24T04:50:58.798Z,22.6
2023-03-24T04:56:50.533Z,22.3
2023-03-24T05:02:43.225Z,22.3
2023-03-24T05:08:34.628Z,24.4
2023-03-24T05:14:30.426Z,23.6
2023-03-24T05:20:07.851Z,22.9
2023-03-24T05:25:44.153Z,23.4
2023-03-24T05:31:21.008Z,23
2023-03-24T05:36:57.489Z,22.9
2023-03-24T05:42:49.470Z,22.7
2023-03-24T05:48:42.067Z,22.4
2023-03-24T05:54:33.532Z,22.4
2023-03-24T06:00:09.745Z,24.4
2023-03-24T06:06:03.045Z,23.4
2023-03-24T06:11:54.467Z,22.9
2023-03-24T06:17:30.948Z,23.4
2023-03-24T06:23:21.957Z,23
2023-03-24T06:28:58.789Z,22.5
2023-03-24T06:34:35.199Z,22.1
2023-03-24T06:42:53.500Z,22.8
2023-03-24T06:48:48.570Z,24.9
2023-03-24T06:54:41.032Z,22.8
2023-03-24T07:00:33.756Z,22.9
2023-03-24T07:06:11.726Z,22.7
2023-03-24T07:13:21.758Z,22.3
2023-03-24T07:19:13.815Z,22.7
2023-03-24T07:25:06.453Z,24.8
2023-03-24T07:31:13.665Z,22.9
2023-03-24T07:37:05.039Z,22.9
2023-03-24T07:42:57.825Z,22.8
2023-03-24T07:48:52.604Z,22.5
2023-03-24T07:54:57.691Z,23.1
2023-03-24T08:00:51.639Z,25.4
2023-03-24T08:06:44.631Z,22.8
2023-03-24T08:12:33.897Z,22.8
2023-03-24T08:18:11.277Z,22.7
2023-03-24T08:23:58.165Z,22.5
2023-03-24T08:29:51.924Z,24.2
2023-03-24T08:35:44.795Z,23.6
2023-03-24T08:41:41.658Z,22.9
2023-03-24T08:47:20.635Z,22.8
2023-03-24T08:52:57.728Z,22.7
2023-03-24T08:58:34.227Z,23.6
2023-03-24T09:04:09.878Z,24.6
2023-03-24T09:10:14.216Z,22.9
2023-03-24T09:15:19.100Z,22.9
2023-03-24T09:20:40.817Z,22.7
2023-03-24T09:26:35.076Z,22.4
2023-03-24T09:32:30.026Z,24.6
2023-03-24T09:38:05.186Z,23.1
2023-03-24T09:43:46.327Z,22.9
2023-03-24T09:49:22.931Z,22.8
2023-03-24T09:54:43.222Z,22.6
2023-03-24T10:00:35.769Z,23.2
2023-03-24T10:06:32.415Z,25.8
2023-03-24T10:12:08.154Z,22.9
2023-03-24T10:18:19.518Z,22.9
2023-03-24T10:24:13.539Z,22.8
2023-03-24T10:29:49.693Z,22.7
2023-03-24T10:35:26.596Z,25.4
2023-03-24T10:41:24.321Z,23
2023-03-24T10:47:16.195Z,22.9
2023-03-24T10:53:15.719Z,22.8
2023-03-24T10:59:08.700Z,22.6
2023-03-24T11:04:48.550Z,24.4
2023-03-24T11:10:09.474Z,23.3
2023-03-24T11:16:11.529Z,22.9
2023-03-24T11:22:04.853Z,22.9
2023-03-24T11:27:42.044Z,22.7
2023-03-24T11:33:35.453Z,23.7
2023-03-24T11:39:39.365Z,23.7
2023-03-24T11:45:31.315Z,22.9
2023-03-24T11:51:10.633Z,22.9
2023-03-24T11:56:46.617Z,22.8
2023-03-24T12:02:40.960Z,22.4
2023-03-24T12:08:35.883Z,22.1
2023-03-24T12:14:39.489Z,21.9
2023-03-24T12:20:47.272Z,21.5
2023-03-24T12:26:39.067Z,21.2
2023-03-24T12:32:29.388Z,20.9
2023-03-24T12:38:24.623Z,20.6
2023-03-24T12:44:17.469Z,20.3
2023-03-24T12:50:20.720Z,20.1
2023-03-24T12:56:09.670Z,19.8
2023-03-24T13:02:04.064Z,19.6
2023-03-24T13:07:51.333Z,19.4
2023-03-24T13:13:55.564Z,19.1
2023-03-24T13:19:49.112Z,18.9
2023-03-24T13:25:40.167Z,18.8
2023-03-24T13:31:47.588Z,18.6
2023-03-24T13:37:40.087Z,18.4
2023-03-24T13:43:16.116Z,18.3
2023-03-24T13:48:53.024Z,18.1
2023-03-24T13:54:45.209Z,18
2023-03-24T14:00:37.057Z,17.9
2023-03-24T14:06:14.746Z,17.8
2023-03-24T14:11:51.238Z,17.6
2023-03-24T14:17:12.714Z,17.6
2023-03-24T14:23:04.179Z,17.4
2023-03-24T14:28:55.292Z,17.4
2023-03-24T14:35:02.196Z,17.3
2023-03-24T14:41:03.352Z,17.2
2023-03-24T14:47:09.476Z,17.1
2023-03-24T14:52:46.875Z,17.1
2023-03-24T15:04:09.573Z,16.9
2023-03-24T15:10:02.360Z,16.9
2023-03-24T15:15:54.038Z,16.8
2023-03-24T15:21:46.282Z,16.8
2023-03-24T15:27:37.422Z,16.8
2023-03-24T15:33:28.958Z,16.7
2023-03-24T15:39:05.968Z,16.6
2023-03-24T15:44:22.093Z,16.6
2023-03-24T15:50:07.481Z,16.6
2023-03-24T15:55:59.223Z,16.5
2023-03-24T16:01:50.340Z,16.5
2023-03-24T16:07:54.659Z,16.4
2023-03-24T16:13:46.809Z,16.4
2023-03-24T16:19:22.652Z,16.4
2023-03-24T16:24:59.082Z,16.3
2023-03-24T16:30:20.539Z,16.3
2023-03-24T16:35:56.531Z,16.3
2023-03-24T16:41:17.559Z,16.3
2023-03-24T16:47:12.427Z,16.3
2023-03-24T16:53:03.690Z,16.2
2023-03-24T16:58:54.736Z,16.3
2023-03-24T17:04:47.435Z,16.2
2023-03-24T17:10:41.375Z,16.2
2023-03-24T17:16:31.718Z,16.1
2023-03-24T17:21:52.752Z,16.1
2023-03-24T17:27:43.600Z,16.1
2023-03-24T17:33:35.281Z,16.1
2023-03-24T17:39:24.577Z,16.1
2023-03-24T17:45:15.164Z,16.1
2023-03-24T17:51:06.767Z,16.1
2023-03-24T17:56:43.287Z,16.1
2023-03-24T18:02:36.753Z,16
2023-03-24T18:08:29.844Z,16
2023-03-24T18:14:21.788Z,16
2023-03-24T18:20:26.540Z,16
2023-03-24T18:26:17.976Z,16
2023-03-24T18:32:10.688Z,16
2023-03-24T18:38:02.872Z,16
2023-03-24T18:43:54.362Z,16
2023-03-24T18:49:46.643Z,16
2023-03-24T18:55:22.700Z,16
2023-03-24T19:00:59.889Z,16
2023-03-24T19:06:36.292Z,15.9
2023-03-24T19:11:59.586Z,15.9
2023-03-24T19:17:35.534Z,16
2023-03-24T19:23:11.733Z,16
2023-03-24T19:29:02.504Z,15.9
2023-03-24T19:34:54.533Z,15.9
2023-03-24T19:40:46.263Z,15.9
2023-03-24T19:46:39.698Z,15.9
2023-03-24T19:52:31.857Z,15.9
2023-03-24T19:58:23.592Z,15.9
2023-03-24T20:04:15.382Z,15.9
2023-03-24T20:09:56.697Z,15.9
2023-03-24T20:15:33.180Z,15.9
2023-03-24T20:21:24.875Z,15.9
2023-03-24T20:27:16.356Z,15.9
2023-03-24T20:33:07.992Z,15.9
2023-03-24T20:38:59.260Z,15.9
2023-03-24T20:44:50.729Z,15.9
2023-03-24T20:50:42.754Z,15.9
2023-03-24T20:56:19.637Z,15.9
2023-03-24T21:02:12.338Z,15.8
2023-03-24T21:07:56.505Z,15.9
2023-03-24T21:14:10.878Z,15.8
2023-03-24T21:20:02.834Z,15.8
2023-03-24T21:25:56.966Z,15.8
2023-03-24T21:31:48.500Z,20.9
2023-03-24T21:37:40.627Z,23.8
2023-03-24T21:43:34.306Z,25.5
2023-03-24T21:49:28.619Z,22.4
2023-03-24T21:55:19.757Z,22.5
2023-03-24T22:01:11.813Z,22.4
2023-03-24T22:06:49.307Z,22.3
2023-03-24T22:12:10.220Z,22.1
2023-03-24T22:18:04.657Z,21.9
2023-03-24T22:23:56.507Z,21.9
2023-03-24T22:29:48.968Z,23.8
2023-03-24T22:35:26.464Z,24.3
2023-03-24T22:41:02.982Z,22.6
2023-03-24T22:46:55.375Z,22.7
2023-03-24T22:52:47.464Z,22.6
2023-03-24T22:58:39.531Z,22.4
2023-03-24T23:04:39.845Z,22.2
2023-03-24T23:10:31.587Z,21.9
2023-03-24T23:15:52.253Z,21.8
2023-03-24T23:20:58.224Z,23.3
2023-03-24T23:26:43.417Z,25.4
2023-03-24T23:32:20.293Z,22.8
2023-03-24T23:37:59.577Z,22.9
2023-03-24T23:43:35.958Z,22.8
2023-03-24T23:49:13.238Z,22.6
2023-03-24T23:55:04.110Z,22.3
